sensor_id;sensor_type;location;lat;lon;timestamp;P1;durP1;ratioP1;P2;durP2;ratioP2
55483;SDS011;41345;51.704;5.146;2023-03-15T00:00:00;37.08;;;34.97;;
55483;SDS011;41345;51.704;5.146;2023-03-15T00:05:01;37.03;;;34.97;;
55483;SDS011;41345;51.704;5.146;2023-03-15T00:10:01;38.00;;;35.92;;
55483;SDS011;41345;51.704;5.146;2023-03-15T00:15:03;38.33;;;36.15;;
55483;SDS011;41345;51.704;5.146;2023-03-15T00:20:03;38.40;;;36.15;;
55483;SDS011;41345;51.704;5.146;2023-03-15T00:25:05;39.30;;;37.03;;
55483;SDS011;41345;51.704;5.146;2023-03-15T00:30:06;40.33;;;37.63;;
55483;SDS011;41345;51.704;5.146;2023-03-15T00:35:06;41.97;;;38.95;;
55483;SDS011;41345;51.704;5.146;2023-03-15T00:40:07;42.13;;;39.17;;
55483;SDS011;41345;51.704;5.146;2023-03-15T00:45:07;42.45;;;39.58;;
55483;SDS011;41345;51.704;5.146;2023-03-15T00:50:09;41.67;;;38.53;;
55483;SDS011;41345;51.704;5.146;2023-03-15T00:55:11;42.30;;;39.20;;
55483;SDS011;41345;51.704;5.146;2023-03-15T01:00:13;40.53;;;37.35;;
55483;SDS011;41345;51.704;5.146;2023-03-15T01:05:14;41.28;;;38.35;;
55483;SDS011;41345;51.704;5.146;2023-03-15T01:10:14;38.55;;;36.00;;
55483;SDS011;41345;51.704;5.146;2023-03-15T01:15:15;38.47;;;35.88;;
55483;SDS011;41345;51.704;5.146;2023-03-15T01:20:15;35.97;;;33.67;;
55483;SDS011;41345;51.704;5.146;2023-03-15T01:25:15;34.17;;;32.17;;
55483;SDS011;41345;51.704;5.146;2023-03-15T01:30:16;34.38;;;32.42;;
55483;SDS011;41345;51.704;5.146;2023-03-15T01:35:16;37.63;;;35.23;;
55483;SDS011;41345;51.704;5.146;2023-03-15T01:40:17;37.05;;;34.83;;
55483;SDS011;41345;51.704;5.146;2023-03-15T01:50:36;37.55;;;35.35;;
55483;SDS011;41345;51.704;5.146;2023-03-15T01:55:36;39.47;;;36.97;;
55483;SDS011;41345;51.704;5.146;2023-03-15T02:00:37;39.40;;;36.92;;
55483;SDS011;41345;51.704;5.146;2023-03-15T02:05:38;40.55;;;37.95;;
55483;SDS011;41345;51.704;5.146;2023-03-15T02:10:52;40.20;;;37.63;;
55483;SDS011;41345;51.704;5.146;2023-03-15T02:15:53;39.22;;;36.67;;
55483;SDS011;41345;51.704;5.146;2023-03-15T02:21:13;41.38;;;38.47;;
55483;SDS011;41345;51.704;5.146;2023-03-15T02:26:19;40.47;;;37.95;;
55483;SDS011;41345;51.704;5.146;2023-03-15T02:31:20;41.80;;;39.00;;
55483;SDS011;41345;51.704;5.146;2023-03-15T02:36:24;41.33;;;38.60;;
55483;SDS011;41345;51.704;5.146;2023-03-15T02:41:38;41.72;;;39.05;;
55483;SDS011;41345;51.704;5.146;2023-03-15T02:46:39;42.28;;;39.53;;
55483;SDS011;41345;51.704;5.146;2023-03-15T02:51:40;41.50;;;38.70;;
55483;SDS011;41345;51.704;5.146;2023-03-15T02:56:40;41.42;;;38.60;;
55483;SDS011;41345;51.704;5.146;2023-03-15T03:01:41;40.33;;;37.63;;
55483;SDS011;41345;51.704;5.146;2023-03-15T03:06:44;41.13;;;38.10;;
55483;SDS011;41345;51.704;5.146;2023-03-15T03:11:45;40.13;;;37.30;;
55483;SDS011;41345;51.704;5.146;2023-03-15T03:16:45;41.00;;;38.38;;
55483;SDS011;41345;51.704;5.146;2023-03-15T03:21:45;40.92;;;38.10;;
55483;SDS011;41345;51.704;5.146;2023-03-15T03:26:46;41.33;;;38.47;;
55483;SDS011;41345;51.704;5.146;2023-03-15T03:31:46;40.47;;;37.67;;
55483;SDS011;41345;51.704;5.146;2023-03-15T03:36:46;42.35;;;39.45;;
55483;SDS011;41345;51.704;5.146;2023-03-15T03:41:47;41.72;;;38.78;;
55483;SDS011;41345;51.704;5.146;2023-03-15T03:46:48;40.15;;;37.50;;
55483;SDS011;41345;51.704;5.146;2023-03-15T03:51:49;40.67;;;37.95;;
55483;SDS011;41345;51.704;5.146;2023-03-15T03:56:49;40.25;;;37.45;;
55483;SDS011;41345;51.704;5.146;2023-03-15T04:01:49;39.97;;;37.17;;
55483;SDS011;41345;51.704;5.146;2023-03-15T04:06:50;41.83;;;38.78;;
55483;SDS011;41345;51.704;5.146;2023-03-15T04:11:50;39.05;;;36.17;;
55483;SDS011;41345;51.704;5.146;2023-03-15T04:16:51;38.88;;;36.30;;
55483;SDS011;41345;51.704;5.146;2023-03-15T04:21:51;41.25;;;38.40;;
55483;SDS011;41345;51.704;5.146;2023-03-15T04:26:51;42.80;;;39.47;;
55483;SDS011;41345;51.704;5.146;2023-03-15T04:31:56;41.30;;;38.20;;
55483;SDS011;41345;51.704;5.146;2023-03-15T04:37:00;41.58;;;38.58;;
55483;SDS011;41345;51.704;5.146;2023-03-15T04:42:01;41.55;;;38.47;;
55483;SDS011;41345;51.704;5.146;2023-03-15T04:47:02;39.33;;;36.47;;
55483;SDS011;41345;51.704;5.146;2023-03-15T04:52:02;37.72;;;35.05;;
55483;SDS011;41345;51.704;5.146;2023-03-15T04:57:02;38.20;;;35.08;;
55483;SDS011;41345;51.704;5.146;2023-03-15T05:02:03;41.80;;;38.17;;
55483;SDS011;41345;51.704;5.146;2023-03-15T05:07:03;41.10;;;37.93;;
55483;SDS011;41345;51.704;5.146;2023-03-15T05:12:03;39.00;;;36.05;;
55483;SDS011;41345;51.704;5.146;2023-03-15T05:17:04;44.75;;;41.05;;
55483;SDS011;41345;51.704;5.146;2023-03-15T05:22:04;46.17;;;42.58;;
55483;SDS011;41345;51.704;5.146;2023-03-15T05:27:04;40.20;;;37.30;;
55483;SDS011;41345;51.704;5.146;2023-03-15T05:32:05;42.53;;;38.88;;
55483;SDS011;41345;51.704;5.146;2023-03-15T05:37:05;43.58;;;40.10;;
55483;SDS011;41345;51.704;5.146;2023-03-15T05:42:05;45.70;;;41.83;;
55483;SDS011;41345;51.704;5.146;2023-03-15T05:47:06;40.33;;;37.45;;
55483;SDS011;41345;51.704;5.146;2023-03-15T05:52:06;41.33;;;38.27;;
55483;SDS011;41345;51.704;5.146;2023-03-15T05:57:06;43.53;;;40.07;;
55483;SDS011;41345;51.704;5.146;2023-03-15T06:02:07;49.75;;;45.45;;
55483;SDS011;41345;51.704;5.146;2023-03-15T06:07:07;50.33;;;45.95;;
55483;SDS011;41345;51.704;5.146;2023-03-15T06:12:07;49.80;;;45.60;;
55483;SDS011;41345;51.704;5.146;2023-03-15T06:17:08;49.35;;;44.65;;
55483;SDS011;41345;51.704;5.146;2023-03-15T06:22:08;46.78;;;42.42;;
55483;SDS011;41345;51.704;5.146;2023-03-15T06:27:08;49.45;;;45.25;;
55483;SDS011;41345;51.704;5.146;2023-03-15T06:32:09;50.55;;;46.25;;
55483;SDS011;41345;51.704;5.146;2023-03-15T06:37:09;50.30;;;46.05;;
55483;SDS011;41345;51.704;5.146;2023-03-15T06:42:12;49.58;;;45.60;;
55483;SDS011;41345;51.704;5.146;2023-03-15T06:47:13;47.92;;;44.17;;
55483;SDS011;41345;51.704;5.146;2023-03-15T06:52:13;48.00;;;44.10;;
55483;SDS011;41345;51.704;5.146;2023-03-15T06:57:13;47.38;;;43.33;;
55483;SDS011;41345;51.704;5.146;2023-03-15T07:02:15;47.00;;;42.80;;
55483;SDS011;41345;51.704;5.146;2023-03-15T07:07:15;48.67;;;44.67;;
55483;SDS011;41345;51.704;5.146;2023-03-15T07:12:16;47.22;;;43.20;;
55483;SDS011;41345;51.704;5.146;2023-03-15T07:17:16;48.03;;;43.70;;
55483;SDS011;41345;51.704;5.146;2023-03-15T07:22:17;44.90;;;41.20;;
55483;SDS011;41345;51.704;5.146;2023-03-15T07:27:17;45.30;;;41.58;;
55483;SDS011;41345;51.704;5.146;2023-03-15T07:32:17;42.92;;;39.58;;
55483;SDS011;41345;51.704;5.146;2023-03-15T07:37:18;40.40;;;37.40;;
55483;SDS011;41345;51.704;5.146;2023-03-15T07:42:18;41.03;;;37.47;;
55483;SDS011;41345;51.704;5.146;2023-03-15T07:47:18;41.00;;;37.85;;
55483;SDS011;41345;51.704;5.146;2023-03-15T07:52:18;40.10;;;37.22;;
55483;SDS011;41345;51.704;5.146;2023-03-15T07:57:20;40.47;;;37.80;;
55483;SDS011;41345;51.704;5.146;2023-03-15T08:02:20;39.17;;;36.55;;
55483;SDS011;41345;51.704;5.146;2023-03-15T08:07:20;40.10;;;37.50;;
55483;SDS011;41345;51.704;5.146;2023-03-15T08:12:21;38.63;;;36.00;;
55483;SDS011;41345;51.704;5.146;2023-03-15T08:17:21;37.17;;;34.38;;
55483;SDS011;41345;51.704;5.146;2023-03-15T08:22:21;32.15;;;29.83;;
55483;SDS011;41345;51.704;5.146;2023-03-15T08:27:23;31.38;;;29.27;;
55483;SDS011;41345;51.704;5.146;2023-03-15T08:32:23;28.35;;;26.42;;
55483;SDS011;41345;51.704;5.146;2023-03-15T08:37:24;24.48;;;22.98;;
55483;SDS011;41345;51.704;5.146;2023-03-15T08:42:24;26.57;;;24.87;;
55483;SDS011;41345;51.704;5.146;2023-03-15T08:47:25;21.35;;;19.50;;
55483;SDS011;41345;51.704;5.146;2023-03-15T08:52:25;14.30;;;13.07;;
55483;SDS011;41345;51.704;5.146;2023-03-15T08:57:26;13.80;;;11.90;;
55483;SDS011;41345;51.704;5.146;2023-03-15T09:02:27;14.32;;;10.13;;
55483;SDS011;41345;51.704;5.146;2023-03-15T09:07:28;13.10;;;4.25;;
55483;SDS011;41345;51.704;5.146;2023-03-15T09:12:28;7.90;;;3.13;;
55483;SDS011;41345;51.704;5.146;2023-03-15T09:17:28;11.27;;;7.03;;
55483;SDS011;41345;51.704;5.146;2023-03-15T09:22:29;9.50;;;2.67;;
55483;SDS011;41345;51.704;5.146;2023-03-15T09:27:29;10.60;;;2.40;;
55483;SDS011;41345;51.704;5.146;2023-03-15T09:32:30;11.75;;;4.40;;
55483;SDS011;41345;51.704;5.146;2023-03-15T09:37:35;11.50;;;1.52;;
55483;SDS011;41345;51.704;5.146;2023-03-15T09:52:53;9.88;;;1.38;;
55483;SDS011;41345;51.704;5.146;2023-03-15T09:57:55;9.03;;;1.30;;
55483;SDS011;41345;51.704;5.146;2023-03-15T10:03:00;13.60;;;1.70;;
55483;SDS011;41345;51.704;5.146;2023-03-15T10:08:04;8.85;;;1.88;;
55483;SDS011;41345;51.704;5.146;2023-03-15T10:23:31;6.07;;;1.47;;
55483;SDS011;41345;51.704;5.146;2023-03-15T10:28:32;8.57;;;1.85;;
55483;SDS011;41345;51.704;5.146;2023-03-15T10:33:33;10.07;;;1.50;;
55483;SDS011;41345;51.704;5.146;2023-03-15T10:38:35;10.43;;;1.25;;
55483;SDS011;41345;51.704;5.146;2023-03-15T10:43:35;9.35;;;1.35;;
55483;SDS011;41345;51.704;5.146;2023-03-15T10:48:50;21.20;;;2.08;;
55483;SDS011;41345;51.704;5.146;2023-03-15T10:53:52;8.90;;;1.27;;
55483;SDS011;41345;51.704;5.146;2023-03-15T10:58:53;6.88;;;1.10;;
55483;SDS011;41345;51.704;5.146;2023-03-15T11:04:01;4.97;;;0.98;;
55483;SDS011;41345;51.704;5.146;2023-03-15T11:09:15;5.95;;;1.08;;
55483;SDS011;41345;51.704;5.146;2023-03-15T11:14:16;6.50;;;0.93;;
55483;SDS011;41345;51.704;5.146;2023-03-15T11:19:18;6.68;;;0.73;;
55483;SDS011;41345;51.704;5.146;2023-03-15T11:24:27;4.68;;;0.93;;
55483;SDS011;41345;51.704;5.146;2023-03-15T11:29:29;4.32;;;1.10;;
55483;SDS011;41345;51.704;5.146;2023-03-15T11:39:54;4.57;;;0.95;;
55483;SDS011;41345;51.704;5.146;2023-03-15T11:44:57;4.93;;;1.05;;
55483;SDS011;41345;51.704;5.146;2023-03-15T11:50:00;7.13;;;1.35;;
55483;SDS011;41345;51.704;5.146;2023-03-15T11:55:01;8.18;;;1.33;;
55483;SDS011;41345;51.704;5.146;2023-03-15T12:05:41;3.65;;;0.95;;
55483;SDS011;41345;51.704;5.146;2023-03-15T12:10:42;7.45;;;1.17;;
55483;SDS011;41345;51.704;5.146;2023-03-15T12:15:46;6.38;;;1.40;;
55483;SDS011;41345;51.704;5.146;2023-03-15T12:26:09;10.55;;;1.63;;
55483;SDS011;41345;51.704;5.146;2023-03-15T12:31:12;4.10;;;1.25;;
55483;SDS011;41345;51.704;5.146;2023-03-15T12:36:17;5.57;;;1.08;;
55483;SDS011;41345;51.704;5.146;2023-03-15T12:41:39;4.75;;;1.10;;
55483;SDS011;41345;51.704;5.146;2023-03-15T12:51:44;5.57;;;0.88;;
55483;SDS011;41345;51.704;5.146;2023-03-15T12:56:53;7.50;;;1.42;;
55483;SDS011;41345;51.704;5.146;2023-03-15T13:01:55;4.45;;;1.20;;
55483;SDS011;41345;51.704;5.146;2023-03-15T13:12:09;6.70;;;1.52;;
55483;SDS011;41345;51.704;5.146;2023-03-15T13:17:20;7.43;;;1.15;;
55483;SDS011;41345;51.704;5.146;2023-03-15T13:32:45;7.28;;;1.40;;
55483;SDS011;41345;51.704;5.146;2023-03-15T13:37:46;4.25;;;1.35;;
55483;SDS011;41345;51.704;5.146;2023-03-15T13:42:46;3.70;;;1.40;;
55483;SDS011;41345;51.704;5.146;2023-03-15T13:47:46;5.10;;;1.45;;
55483;SDS011;41345;51.704;5.146;2023-03-15T13:52:47;3.30;;;1.00;;
55483;SDS011;41345;51.704;5.146;2023-03-15T13:57:55;5.50;;;1.20;;
55483;SDS011;41345;51.704;5.146;2023-03-15T14:02:57;2.70;;;1.00;;
55483;SDS011;41345;51.704;5.146;2023-03-15T14:08:00;3.10;;;1.00;;
55483;SDS011;41345;51.704;5.146;2023-03-15T14:13:21;4.22;;;1.23;;
55483;SDS011;41345;51.704;5.146;2023-03-15T14:18:23;5.20;;;1.25;;
55483;SDS011;41345;51.704;5.146;2023-03-15T14:23:24;3.88;;;0.98;;
55483;SDS011;41345;51.704;5.146;2023-03-15T14:28:25;3.28;;;1.23;;
55483;SDS011;41345;51.704;5.146;2023-03-15T14:38:25;4.03;;;1.10;;
55483;SDS011;41345;51.704;5.146;2023-03-15T14:43:31;2.83;;;0.95;;
55483;SDS011;41345;51.704;5.146;2023-03-15T14:48:31;5.68;;;1.35;;
55483;SDS011;41345;51.704;5.146;2023-03-15T14:53:33;3.47;;;1.00;;
55483;SDS011;41345;51.704;5.146;2023-03-15T14:58:33;5.03;;;1.48;;
55483;SDS011;41345;51.704;5.146;2023-03-15T15:03:39;3.78;;;1.30;;
55483;SDS011;41345;51.704;5.146;2023-03-15T15:08:41;6.63;;;1.60;;
55483;SDS011;41345;51.704;5.146;2023-03-15T15:13:43;5.07;;;1.42;;
55483;SDS011;41345;51.704;5.146;2023-03-15T15:18:43;2.80;;;1.25;;
55483;SDS011;41345;51.704;5.146;2023-03-15T15:23:44;2.90;;;1.30;;
55483;SDS011;41345;51.704;5.146;2023-03-15T15:28:45;5.20;;;1.52;;
55483;SDS011;41345;51.704;5.146;2023-03-15T15:33:46;4.97;;;1.75;;
55483;SDS011;41345;51.704;5.146;2023-03-15T15:38:46;6.47;;;2.23;;
55483;SDS011;41345;51.704;5.146;2023-03-15T15:43:46;3.00;;;1.50;;
55483;SDS011;41345;51.704;5.146;2023-03-15T15:48:47;3.78;;;1.40;;
55483;SDS011;41345;51.704;5.146;2023-03-15T15:53:47;4.57;;;1.80;;
55483;SDS011;41345;51.704;5.146;2023-03-15T15:58:48;5.88;;;1.80;;
55483;SDS011;41345;51.704;5.146;2023-03-15T16:03:48;2.90;;;1.60;;
55483;SDS011;41345;51.704;5.146;2023-03-15T16:08:49;5.95;;;1.40;;
55483;SDS011;41345;51.704;5.146;2023-03-15T16:13:51;6.38;;;1.60;;
55483;SDS011;41345;51.704;5.146;2023-03-15T16:18:52;6.18;;;1.67;;
55483;SDS011;41345;51.704;5.146;2023-03-15T16:23:57;6.45;;;1.95;;
55483;SDS011;41345;51.704;5.146;2023-03-15T16:28:58;3.55;;;1.88;;
55483;SDS011;41345;51.704;5.146;2023-03-15T16:33:58;4.22;;;2.10;;
55483;SDS011;41345;51.704;5.146;2023-03-15T16:38:58;6.00;;;2.20;;
55483;SDS011;41345;51.704;5.146;2023-03-15T16:44:00;3.85;;;2.03;;
55483;SDS011;41345;51.704;5.146;2023-03-15T16:49:01;4.93;;;1.80;;
55483;SDS011;41345;51.704;5.146;2023-03-15T16:54:01;8.57;;;2.30;;
55483;SDS011;41345;51.704;5.146;2023-03-15T16:59:02;4.78;;;2.00;;
55483;SDS011;41345;51.704;5.146;2023-03-15T17:04:02;7.00;;;2.38;;
55483;SDS011;41345;51.704;5.146;2023-03-15T17:09:04;3.35;;;2.20;;
55483;SDS011;41345;51.704;5.146;2023-03-15T17:19:09;3.22;;;1.90;;
55483;SDS011;41345;51.704;5.146;2023-03-15T17:24:10;5.18;;;2.22;;
55483;SDS011;41345;51.704;5.146;2023-03-15T17:29:12;5.25;;;2.30;;
55483;SDS011;41345;51.704;5.146;2023-03-15T17:34:13;5.57;;;2.38;;
55483;SDS011;41345;51.704;5.146;2023-03-15T17:39:14;4.90;;;2.58;;
55483;SDS011;41345;51.704;5.146;2023-03-15T17:44:16;5.80;;;2.33;;
55483;SDS011;41345;51.704;5.146;2023-03-15T17:49:16;6.20;;;2.47;;
55483;SDS011;41345;51.704;5.146;2023-03-15T17:54:16;4.80;;;2.50;;
55483;SDS011;41345;51.704;5.146;2023-03-15T17:59:17;6.32;;;2.50;;
55483;SDS011;41345;51.704;5.146;2023-03-15T18:04:18;4.68;;;2.53;;
55483;SDS011;41345;51.704;5.146;2023-03-15T18:09:19;6.40;;;2.38;;
55483;SDS011;41345;51.704;5.146;2023-03-15T18:14:21;5.47;;;2.22;;
55483;SDS011;41345;51.704;5.146;2023-03-15T18:19:21;4.95;;;2.40;;
55483;SDS011;41345;51.704;5.146;2023-03-15T18:24:22;5.47;;;2.90;;
55483;SDS011;41345;51.704;5.146;2023-03-15T18:29:22;6.38;;;3.42;;
55483;SDS011;41345;51.704;5.146;2023-03-15T18:34:23;5.60;;;3.15;;
55483;SDS011;41345;51.704;5.146;2023-03-15T18:39:23;4.50;;;2.93;;
55483;SDS011;41345;51.704;5.146;2023-03-15T18:44:24;7.22;;;3.10;;
55483;SDS011;41345;51.704;5.146;2023-03-15T18:49:24;5.13;;;3.30;;
55483;SDS011;41345;51.704;5.146;2023-03-15T18:54:24;5.85;;;2.95;;
55483;SDS011;41345;51.704;5.146;2023-03-15T18:59:25;7.25;;;3.70;;
55483;SDS011;41345;51.704;5.146;2023-03-15T19:04:25;6.40;;;3.30;;
55483;SDS011;41345;51.704;5.146;2023-03-15T19:09:25;8.70;;;4.00;;
55483;SDS011;41345;51.704;5.146;2023-03-15T19:14:25;7.65;;;4.03;;
55483;SDS011;41345;51.704;5.146;2023-03-15T19:19:26;7.93;;;4.70;;
55483;SDS011;41345;51.704;5.146;2023-03-15T19:24:27;8.90;;;4.55;;
55483;SDS011;41345;51.704;5.146;2023-03-15T19:29:27;7.35;;;4.68;;
55483;SDS011;41345;51.704;5.146;2023-03-15T19:34:27;7.50;;;4.68;;
55483;SDS011;41345;51.704;5.146;2023-03-15T19:39:28;7.28;;;4.28;;
55483;SDS011;41345;51.704;5.146;2023-03-15T19:44:28;8.02;;;4.45;;
55483;SDS011;41345;51.704;5.146;2023-03-15T19:49:29;6.13;;;4.05;;
55483;SDS011;41345;51.704;5.146;2023-03-15T19:54:30;8.35;;;4.85;;
55483;SDS011;41345;51.704;5.146;2023-03-15T19:59:32;8.10;;;5.10;;
55483;SDS011;41345;51.704;5.146;2023-03-15T20:04:38;7.88;;;4.82;;
55483;SDS011;41345;51.704;5.146;2023-03-15T20:09:39;13.02;;;5.07;;
55483;SDS011;41345;51.704;5.146;2023-03-15T20:14:40;7.55;;;4.60;;
55483;SDS011;41345;51.704;5.146;2023-03-15T20:19:40;9.03;;;6.20;;
55483;SDS011;41345;51.704;5.146;2023-03-15T20:24:41;12.27;;;4.53;;
55483;SDS011;41345;51.704;5.146;2023-03-15T20:29:43;10.50;;;6.15;;
55483;SDS011;41345;51.704;5.146;2023-03-15T20:34:43;15.05;;;6.50;;
55483;SDS011;41345;51.704;5.146;2023-03-15T20:39:43;13.07;;;6.57;;
55483;SDS011;41345;51.704;5.146;2023-03-15T20:44:43;13.77;;;6.13;;
55483;SDS011;41345;51.704;5.146;2023-03-15T20:49:44;12.00;;;5.20;;
55483;SDS011;41345;51.704;5.146;2023-03-15T20:54:44;11.85;;;5.63;;
55483;SDS011;41345;51.704;5.146;2023-03-15T20:59:44;12.05;;;5.15;;
55483;SDS011;41345;51.704;5.146;2023-03-15T21:04:45;9.70;;;4.95;;
55483;SDS011;41345;51.704;5.146;2023-03-15T21:09:46;11.25;;;5.03;;
55483;SDS011;41345;51.704;5.146;2023-03-15T21:14:46;11.57;;;5.20;;
55483;SDS011;41345;51.704;5.146;2023-03-15T21:19:46;11.02;;;5.10;;
55483;SDS011;41345;51.704;5.146;2023-03-15T21:24:47;9.13;;;5.07;;
55483;SDS011;41345;51.704;5.146;2023-03-15T21:29:48;9.27;;;4.88;;
55483;SDS011;41345;51.704;5.146;2023-03-15T21:34:48;10.07;;;4.80;;
55483;SDS011;41345;51.704;5.146;2023-03-15T21:39:49;10.43;;;5.03;;
55483;SDS011;41345;51.704;5.146;2023-03-15T21:44:49;9.18;;;5.05;;
55483;SDS011;41345;51.704;5.146;2023-03-15T21:49:52;9.43;;;4.97;;
55483;SDS011;41345;51.704;5.146;2023-03-15T21:54:53;9.18;;;4.97;;
55483;SDS011;41345;51.704;5.146;2023-03-15T21:59:53;8.85;;;4.47;;
55483;SDS011;41345;51.704;5.146;2023-03-15T22:04:53;11.43;;;5.03;;
55483;SDS011;41345;51.704;5.146;2023-03-15T22:09:54;9.63;;;5.22;;
55483;SDS011;41345;51.704;5.146;2023-03-15T22:14:54;11.07;;;5.18;;
55483;SDS011;41345;51.704;5.146;2023-03-15T22:19:54;9.93;;;5.25;;
55483;SDS011;41345;51.704;5.146;2023-03-15T22:24:55;9.48;;;5.13;;
55483;SDS011;41345;51.704;5.146;2023-03-15T22:29:55;10.97;;;5.50;;
55483;SDS011;41345;51.704;5.146;2023-03-15T22:34:56;9.82;;;4.90;;
55483;SDS011;41345;51.704;5.146;2023-03-15T22:39:56;10.40;;;5.22;;
55483;SDS011;41345;51.704;5.146;2023-03-15T22:44:56;10.23;;;5.90;;
55483;SDS011;41345;51.704;5.146;2023-03-15T22:49:57;9.95;;;5.68;;
55483;SDS011;41345;51.704;5.146;2023-03-15T22:54:58;11.05;;;5.95;;
55483;SDS011;41345;51.704;5.146;2023-03-15T22:59:58;10.32;;;5.88;;
55483;SDS011;41345;51.704;5.146;2023-03-15T23:04:59;12.30;;;7.05;;
55483;SDS011;41345;51.704;5.146;2023-03-15T23:10:00;10.45;;;6.15;;
55483;SDS011;41345;51.704;5.146;2023-03-15T23:15:00;11.30;;;6.70;;
55483;SDS011;41345;51.704;5.146;2023-03-15T23:20:01;10.13;;;7.00;;
55483;SDS011;41345;51.704;5.146;2023-03-15T23:25:01;10.17;;;6.50;;
55483;SDS011;41345;51.704;5.146;2023-03-15T23:30:02;11.85;;;7.25;;
55483;SDS011;41345;51.704;5.146;2023-03-15T23:35:03;12.38;;;7.53;;
55483;SDS011;41345;51.704;5.146;2023-03-15T23:40:04;10.40;;;6.85;;
55483;SDS011;41345;51.704;5.146;2023-03-15T23:45:13;12.07;;;7.13;;
55483;SDS011;41345;51.704;5.146;2023-03-15T23:50:14;10.70;;;6.70;;
55483;SDS011;41345;51.704;5.146;2023-03-15T23:55:15;12.50;;;7.15;;
